Startpagina
METAR-TAF:

METAR-TAF

Vliegvelden :

Ballina Airport

Ballina, Australië

breedte: 28-50-00S, lengte: 153-33-42E, hoogte: 2 m

Actueel weer

Dit bericht is 28 minuten geleden gemaakt, om 12:00 UTC
Wind 5 kt uit het westen
Temperatuur 18°C
Vochtigheid 88%
Druk 1023 hPa
Zicht 10 km of meer
Verspreide wolken op 3600 ft
Verspreide wolken op 4200 ft
Verspreide wolken op 4700 ft

METAR: YBNA 211200Z AUTO 27005KT 9999 // SCT036 SCT042 SCT047 18/16 Q1023

Tijdstip: 22:28 (12:28 UTC)


TAF: ontbreekt

Waarnemingen en weersverwachtingen van meer dan 4000 vliegvelden (METAR en TAF).

De beschikbare stations zijn de gele en rode punten op de kaart.

Ga met uw muis naar het station om de naam te zien.

Klik dan om waarnemingen en weersverwachtingen te zien.

kaart wijzigen: klik op de groene knoppen met een zwart kruis om in te zoomen, op de groene knop met een streepje om uit te zoomen of op de groene pijlen voor aangrenzende kaarten.


METAR-TAF: